createdAt,value
2022-08-19T00:01:57.480Z,22.82
2022-08-19T00:04:29.378Z,22.88
2022-08-19T00:06:57.559Z,22.96
2022-08-19T00:09:25.996Z,22.92
2022-08-19T00:11:56.284Z,22.90
2022-08-19T00:14:49.396Z,22.87
2022-08-19T00:17:18.718Z,22.86
2022-08-19T00:19:46.556Z,22.82
2022-08-19T00:22:14.859Z,22.77
2022-08-19T00:24:44.543Z,22.74
2022-08-19T00:27:26.382Z,22.59
2022-08-19T00:29:54.953Z,22.43
2022-08-19T00:32:25.486Z,22.23
2022-08-19T00:34:55.695Z,22.13
2022-08-19T00:37:26.823Z,22.03
2022-08-19T00:39:56.923Z,22.00
2022-08-19T00:42:29.278Z,21.85
2022-08-19T00:44:57.206Z,21.77
2022-08-19T00:47:26.417Z,21.57
2022-08-19T00:49:59.723Z,21.67
2022-08-19T00:52:30.978Z,21.66
2022-08-19T00:54:59.916Z,21.70
2022-08-19T00:57:31.232Z,21.62
2022-08-19T01:00:03.094Z,21.74
2022-08-19T01:02:34.522Z,21.64
2022-08-19T01:05:06.826Z,21.33
2022-08-19T01:07:38.399Z,21.37
2022-08-19T01:10:09.585Z,21.49
2022-08-19T01:12:37.649Z,21.58
2022-08-19T01:15:06.516Z,21.34
2022-08-19T01:17:38.533Z,21.27
2022-08-19T01:20:08.558Z,21.19
2022-08-19T01:22:44.233Z,21.09
2022-08-19T01:25:15.115Z,21.16
2022-08-19T01:27:45.665Z,21.01
2022-08-19T01:30:17.015Z,21.05
2022-08-19T01:32:45.644Z,20.93
2022-08-19T01:35:16.691Z,20.86
2022-08-19T01:37:49.277Z,20.91
2022-08-19T01:40:18.094Z,20.93
2022-08-19T01:42:46.068Z,20.71
2022-08-19T01:45:14.096Z,20.75
2022-08-19T01:47:42.274Z,20.75
2022-08-19T01:50:13.232Z,20.69
2022-08-19T01:52:42.855Z,20.74
2022-08-19T01:55:15.535Z,20.74
2022-08-19T01:57:48.255Z,20.74
2022-08-19T02:00:18.499Z,20.90
2022-08-19T02:02:46.870Z,20.91
2022-08-19T02:05:14.829Z,20.84
2022-08-19T02:07:42.989Z,20.61
2022-08-19T02:10:16.731Z,20.80
2022-08-19T02:12:45.020Z,20.71
2022-08-19T02:15:13.770Z,20.76
2022-08-19T02:17:42.632Z,20.78
2022-08-19T02:20:12.140Z,20.65
2022-08-19T02:22:42.394Z,20.71
2022-08-19T02:25:13.086Z,20.79
2022-08-19T02:27:41.632Z,20.57
2022-08-19T02:30:14.440Z,20.63
2022-08-19T02:32:45.039Z,20.77
2022-08-19T02:35:14.488Z,20.61
2022-08-19T02:38:00.021Z,20.66
2022-08-19T02:40:30.093Z,20.57
2022-08-19T02:42:58.583Z,20.47
2022-08-19T02:45:26.468Z,20.46
2022-08-19T02:47:54.398Z,20.52
2022-08-19T02:50:22.644Z,20.60
2022-08-19T02:52:50.490Z,20.58
2022-08-19T02:55:18.791Z,20.74
2022-08-19T02:57:47.985Z,20.81
2022-08-19T03:00:16.904Z,20.95
2022-08-19T03:02:44.823Z,20.95
2022-08-19T03:05:12.747Z,21.05
2022-08-19T03:07:40.586Z,21.11
2022-08-19T03:10:10.131Z,21.25
2022-08-19T03:12:39.039Z,21.11
2022-08-19T03:15:09.975Z,21.37
2022-08-19T03:17:38.062Z,21.33
2022-08-19T03:20:06.969Z,21.55
2022-08-19T03:22:43.939Z,21.53
2022-08-19T03:25:13.002Z,21.60
2022-08-19T03:27:40.854Z,21.75
2022-08-19T03:30:12.451Z,21.88
2022-08-19T03:32:45.325Z,21.80
2022-08-19T03:35:15.354Z,21.72
2022-08-19T03:37:43.192Z,21.50
2022-08-19T03:40:16.503Z,21.60
2022-08-19T03:42:49.251Z,21.45
2022-08-19T03:45:19.338Z,21.57
2022-08-19T03:47:47.514Z,21.64
2022-08-19T03:50:15.348Z,21.53
2022-08-19T03:52:45.316Z,21.60
2022-08-19T03:55:15.086Z,21.53
2022-08-19T03:57:43.009Z,21.54
2022-08-19T04:00:13.384Z,21.58
2022-08-19T04:02:56.427Z,21.56
2022-08-19T04:05:29.458Z,21.47
2022-08-19T04:08:00.158Z,21.53
2022-08-19T04:10:29.144Z,21.63
2022-08-19T04:12:56.999Z,21.63
2022-08-19T04:15:24.933Z,21.62
2022-08-19T04:17:54.168Z,21.55
2022-08-19T04:20:22.091Z,21.72
2022-08-19T04:22:50.213Z,21.80
2022-08-19T04:25:18.319Z,21.94
2022-08-19T04:27:47.357Z,21.97
2022-08-19T04:30:16.491Z,21.91
2022-08-19T04:32:45.661Z,21.97
2022-08-19T04:35:17.689Z,22.14
2022-08-19T04:37:46.895Z,22.23
2022-08-19T04:40:32.857Z,22.52
2022-08-19T04:43:02.222Z,22.50
2022-08-19T04:45:39.541Z,22.56
2022-08-19T04:48:26.473Z,22.68
2022-08-19T04:50:59.428Z,22.62
2022-08-19T04:53:29.633Z,22.78
2022-08-19T04:56:08.984Z,22.82
2022-08-19T04:58:38.248Z,23.00
2022-08-19T05:01:06.613Z,23.04
2022-08-19T05:03:35.131Z,23.00
2022-08-19T05:06:08.560Z,22.92
2022-08-19T05:08:37.325Z,22.95
2022-08-19T05:11:14.157Z,22.83
2022-08-19T05:13:43.276Z,22.96
2022-08-19T05:16:12.995Z,22.77
2022-08-19T05:18:58.553Z,22.81
2022-08-19T05:21:46.355Z,22.97
2022-08-19T05:24:15.442Z,22.90
2022-08-19T05:26:47.307Z,22.90
2022-08-19T05:29:17.330Z,22.34
2022-08-19T05:31:46.075Z,22.33
2022-08-19T05:34:18.274Z,22.37
2022-08-19T05:36:50.996Z,22.39
2022-08-19T05:39:22.210Z,22.66
2022-08-19T05:41:53.781Z,22.77
2022-08-19T05:44:22.703Z,22.08
2022-08-19T05:46:53.935Z,22.34
2022-08-19T05:49:23.767Z,22.10
2022-08-19T05:51:53.793Z,22.24
2022-08-19T05:54:23.932Z,22.38
2022-08-19T05:56:52.780Z,22.05
2022-08-19T05:59:22.513Z,22.06
2022-08-19T06:01:55.445Z,21.84
2022-08-19T06:04:23.919Z,22.00
2022-08-19T06:06:55.037Z,22.24
2022-08-19T06:09:24.306Z,22.19
2022-08-19T06:11:56.054Z,22.06
2022-08-19T06:14:28.087Z,22.42
2022-08-19T06:16:56.680Z,22.36
2022-08-19T06:19:26.301Z,22.57
2022-08-19T06:21:55.548Z,22.69
2022-08-19T06:24:25.799Z,22.64
2022-08-19T06:26:59.190Z,22.95
2022-08-19T06:29:32.300Z,23.32
2022-08-19T06:32:04.104Z,23.78
2022-08-19T06:34:35.943Z,23.77
2022-08-19T06:37:06.777Z,23.38
2022-08-19T06:39:37.018Z,23.69
2022-08-19T06:42:10.290Z,23.40
2022-08-19T06:44:43.319Z,23.36
2022-08-19T06:47:23.850Z,23.33
2022-08-19T06:50:01.075Z,23.16
2022-08-19T06:52:34.332Z,23.59
2022-08-19T06:55:06.179Z,23.26
2022-08-19T06:57:35.564Z,22.96
2022-08-19T07:00:04.554Z,22.77
2022-08-19T07:02:32.631Z,23.02
2022-08-19T07:05:03.555Z,23.38
2022-08-19T07:07:36.229Z,23.51
2022-08-19T07:10:07.809Z,23.70
2022-08-19T07:12:38.028Z,23.57
2022-08-19T07:15:09.838Z,23.83
2022-08-19T07:17:40.340Z,23.13
2022-08-19T07:20:11.205Z,22.87
2022-08-19T07:22:41.196Z,23.04
2022-08-19T07:25:10.367Z,22.99
2022-08-19T07:27:46.169Z,23.10
2022-08-19T07:30:14.884Z,23.13
2022-08-19T07:32:44.139Z,22.87
2022-08-19T07:35:13.020Z,22.91
2022-08-19T07:37:45.350Z,22.88
2022-08-19T07:40:14.934Z,23.00
2022-08-19T07:42:43.793Z,22.72
2022-08-19T07:45:12.220Z,22.71
2022-08-19T07:47:47.521Z,22.58
2022-08-19T07:50:21.392Z,22.61
2022-08-19T07:52:52.826Z,22.59
2022-08-19T07:55:40.415Z,22.78
2022-08-19T07:58:11.795Z,22.91
2022-08-19T08:00:40.095Z,22.84
2022-08-19T08:03:09.560Z,22.71
2022-08-19T08:05:55.158Z,22.87
2022-08-19T08:08:43.953Z,22.53
2022-08-19T08:11:13.439Z,22.47
2022-08-19T08:13:43.767Z,22.59
2022-08-19T08:16:13.962Z,22.75
2022-08-19T08:18:50.573Z,22.87
2022-08-19T08:21:21.147Z,22.75
2022-08-19T08:23:53.131Z,22.83
2022-08-19T08:26:22.440Z,22.92
2022-08-19T08:28:50.932Z,22.77
2022-08-19T08:31:45.351Z,22.74
2022-08-19T08:34:15.160Z,22.72
2022-08-19T08:36:46.796Z,22.71
2022-08-19T08:39:19.605Z,22.27
2022-08-19T08:41:55.216Z,22.15
2022-08-19T08:44:29.911Z,22.39
2022-08-19T08:47:02.827Z,22.42
2022-08-19T08:49:35.985Z,22.65
2022-08-19T08:52:08.127Z,22.61
2022-08-19T08:54:48.817Z,22.92
2022-08-19T08:57:30.563Z,23.24
2022-08-19T09:00:15.865Z,23.24
2022-08-19T09:02:44.283Z,23.43
2022-08-19T09:05:16.668Z,23.14
2022-08-19T09:07:57.763Z,23.10
2022-08-19T09:10:33.975Z,22.94
2022-08-19T09:13:12.652Z,22.90
2022-08-19T09:15:45.546Z,22.61
2022-08-19T09:18:19.529Z,22.93
2022-08-19T09:20:49.304Z,23.04
2022-08-19T09:23:18.008Z,23.74
2022-08-19T09:25:56.534Z,24.07
2022-08-19T09:28:27.464Z,23.94
2022-08-19T09:30:55.451Z,24.25
2022-08-19T09:33:24.185Z,24.02
2022-08-19T09:35:53.754Z,23.90
2022-08-19T09:38:22.415Z,23.53
2022-08-19T09:40:51.043Z,23.43
2022-08-19T09:43:33.737Z,23.52
2022-08-19T09:46:11.200Z,23.64
2022-08-19T09:48:39.902Z,23.72
2022-08-19T09:51:11.901Z,23.60
2022-08-19T09:53:40.823Z,23.52
2022-08-19T09:56:09.410Z,23.74
2022-08-19T09:58:39.308Z,24.09
2022-08-19T10:01:09.342Z,24.28
2022-08-19T10:03:38.353Z,24.21
2022-08-19T10:06:15.214Z,24.09
2022-08-19T10:08:50.447Z,24.46
2022-08-19T10:11:28.692Z,24.55
2022-08-19T10:14:07.462Z,24.22
2022-08-19T10:16:39.578Z,24.26
2022-08-19T10:19:08.817Z,24.30
2022-08-19T10:21:38.073Z,24.16
2022-08-19T10:24:09.492Z,24.31
2022-08-19T10:26:42.604Z,23.75
2022-08-19T10:29:12.778Z,23.93
2022-08-19T10:32:00.858Z,24.03
2022-08-19T10:34:31.026Z,24.56
2022-08-19T10:37:02.267Z,24.27
2022-08-19T10:39:32.100Z,24.10
2022-08-19T10:42:11.546Z,24.14
2022-08-19T10:44:41.425Z,23.78
2022-08-19T10:47:17.392Z,23.50
2022-08-19T10:50:11.777Z,23.71
2022-08-19T10:52:50.099Z,23.83
2022-08-19T10:55:39.243Z,24.01
2022-08-19T10:58:14.199Z,23.45
2022-08-19T11:00:44.836Z,23.25
2022-08-19T11:03:13.133Z,23.19
2022-08-19T11:05:41.635Z,22.93
2022-08-19T11:08:22.967Z,23.10
2022-08-19T11:10:52.528Z,22.75
2022-08-19T11:13:20.421Z,22.68
2022-08-19T11:15:49.766Z,22.37
2022-08-19T11:18:18.285Z,22.54
2022-08-19T11:20:46.330Z,23.11
2022-08-19T11:23:14.239Z,23.68
2022-08-19T11:25:42.693Z,23.86
2022-08-19T11:28:10.594Z,24.22
2022-08-19T11:30:39.313Z,24.53
2022-08-19T11:33:12.181Z,24.29
2022-08-19T11:35:41.995Z,24.36
2022-08-19T11:38:10.013Z,23.96
2022-08-19T11:40:38.219Z,24.19
2022-08-19T11:43:06.129Z,24.42
2022-08-19T11:45:34.190Z,24.34
2022-08-19T11:48:02.835Z,24.39
2022-08-19T11:50:32.069Z,24.50
2022-08-19T11:53:00.206Z,24.62
2022-08-19T11:55:28.247Z,25.38
2022-08-19T11:57:56.276Z,25.38
2022-08-19T12:00:33.802Z,25.71
2022-08-19T12:03:01.865Z,25.76
2022-08-19T12:05:29.929Z,25.89
2022-08-19T12:08:04.605Z,25.50
2022-08-19T12:10:32.687Z,25.48
2022-08-19T12:13:01.605Z,25.99
2022-08-19T12:15:45.016Z,26.04
2022-08-19T12:18:14.861Z,26.35
2022-08-19T12:20:44.743Z,26.82
2022-08-19T12:23:14.152Z,27.14
2022-08-19T12:25:49.424Z,27.26
2022-08-19T12:28:17.508Z,28.09
2022-08-19T12:31:12.996Z,27.27
2022-08-19T12:33:43.642Z,27.24
2022-08-19T12:36:15.107Z,27.19
2022-08-19T12:38:45.070Z,27.34
2022-08-19T12:41:15.392Z,27.24
2022-08-19T12:43:43.398Z,27.65
2022-08-19T12:46:17.465Z,28.06
2022-08-19T12:48:47.774Z,28.39
2022-08-19T12:51:21.475Z,27.80
2022-08-19T12:53:50.838Z,28.30
2022-08-19T12:56:23.059Z,29.16
2022-08-19T12:58:53.108Z,29.13
2022-08-19T13:01:22.684Z,29.40
2022-08-19T13:03:53.267Z,28.75
2022-08-19T13:06:22.352Z,29.82
2022-08-19T13:08:52.002Z,29.19
2022-08-19T13:11:25.348Z,29.22
2022-08-19T13:13:56.242Z,29.43
2022-08-19T13:16:24.258Z,29.37
2022-08-19T13:18:53.085Z,29.47
2022-08-19T13:21:23.167Z,29.32
2022-08-19T13:23:53.071Z,28.58
2022-08-19T13:26:21.300Z,28.11
2022-08-19T13:29:07.888Z,27.83
2022-08-19T13:31:55.471Z,28.27
2022-08-19T13:34:30.948Z,28.30
2022-08-19T13:36:59.988Z,28.15
2022-08-19T13:39:31.041Z,27.99
2022-08-19T13:42:01.278Z,28.06
2022-08-19T13:44:31.307Z,28.12
2022-08-19T13:47:06.929Z,27.99
2022-08-19T13:49:37.238Z,28.40
2022-08-19T13:52:06.544Z,28.60
2022-08-19T13:54:35.939Z,29.60
2022-08-19T13:57:03.891Z,29.70
2022-08-19T13:59:31.892Z,29.33
2022-08-19T14:02:00.548Z,29.12
2022-08-19T14:08:28.897Z,29.89
2022-08-19T14:10:58.267Z,30.23
2022-08-19T14:13:26.697Z,29.55
2022-08-19T14:15:54.589Z,29.31
2022-08-19T14:18:22.783Z,29.17
2022-08-19T14:20:54.825Z,29.01
2022-08-19T14:23:23.334Z,28.68
2022-08-19T14:25:51.748Z,28.52
2022-08-19T14:28:20.923Z,28.36
2022-08-19T14:30:55.212Z,28.00
2022-08-19T14:33:28.413Z,27.64
2022-08-19T14:35:59.884Z,27.51
2022-08-19T14:38:32.468Z,27.40
2022-08-19T14:41:12.358Z,27.92
2022-08-19T14:44:06.147Z,28.25
2022-08-19T14:46:35.087Z,28.85
2022-08-19T14:49:09.315Z,29.09
2022-08-19T14:51:37.701Z,28.39
2022-08-19T14:54:05.756Z,27.83
2022-08-19T14:56:33.791Z,27.98
2022-08-19T14:59:03.153Z,27.52
2022-08-19T15:01:31.208Z,27.07
2022-08-19T15:03:59.154Z,27.51
2022-08-19T15:06:27.902Z,27.64
2022-08-19T15:08:57.768Z,27.50
2022-08-19T15:11:30.171Z,27.92
2022-08-19T15:13:58.650Z,28.65
2022-08-19T15:16:28.776Z,29.41
2022-08-19T15:18:58.796Z,28.93
2022-08-19T15:21:27.600Z,28.75
2022-08-19T15:23:56.483Z,27.88
2022-08-19T15:26:25.720Z,27.60
2022-08-19T15:28:53.584Z,27.79
2022-08-19T15:31:28.053Z,27.76
2022-08-19T15:33:59.410Z,27.77
2022-08-19T15:36:29.285Z,28.22
2022-08-19T15:38:57.760Z,27.86
2022-08-19T15:41:29.093Z,28.16
2022-08-19T15:43:59.813Z,28.38
2022-08-19T15:46:30.503Z,28.20
2022-08-19T15:49:00.810Z,28.22
2022-08-19T15:51:31.344Z,27.69
2022-08-19T15:54:00.226Z,27.75
2022-08-19T15:56:58.463Z,27.37
2022-08-19T15:59:47.147Z,27.13
2022-08-19T16:02:37.173Z,26.68
2022-08-19T16:05:26.837Z,26.16
2022-08-19T16:07:55.413Z,26.24
2022-08-19T16:10:26.448Z,26.40
2022-08-19T16:12:56.413Z,26.01
2022-08-19T16:15:24.735Z,25.40
2022-08-19T16:17:56.351Z,25.57
2022-08-19T16:20:28.093Z,25.64
2022-08-19T16:22:58.242Z,25.71
2022-08-19T16:25:29.096Z,25.67
2022-08-19T16:28:07.977Z,25.36
2022-08-19T16:30:38.562Z,25.01
2022-08-19T16:33:08.140Z,24.94
2022-08-19T16:35:38.357Z,24.64
2022-08-19T16:38:07.088Z,24.64
2022-08-19T16:40:38.157Z,24.39
2022-08-19T16:43:08.476Z,24.30
2022-08-19T16:45:36.491Z,24.18
2022-08-19T16:48:04.905Z,23.93
2022-08-19T16:50:48.759Z,23.94
2022-08-19T16:53:21.352Z,24.14
2022-08-19T16:55:50.816Z,24.06
2022-08-19T16:58:19.299Z,24.14
2022-08-19T17:00:48.510Z,24.02
2022-08-19T17:03:17.896Z,24.13
2022-08-19T17:05:47.409Z,23.88
2022-08-19T17:08:16.889Z,23.81
2022-08-19T17:11:07.890Z,23.79
2022-08-19T17:13:35.489Z,23.40
2022-08-19T17:16:03.635Z,23.26
2022-08-19T17:18:32.754Z,22.98
2022-08-19T17:21:01.535Z,23.26
2022-08-19T17:23:42.853Z,23.01
2022-08-19T17:26:18.031Z,23.31
2022-08-19T17:28:49.735Z,23.39
2022-08-19T17:31:19.456Z,23.01
2022-08-19T17:33:49.000Z,22.91
2022-08-19T17:36:18.322Z,23.00
2022-08-19T17:38:46.847Z,22.83
2022-08-19T17:41:16.281Z,22.68
2022-08-19T17:43:45.295Z,22.48
2022-08-19T17:46:17.925Z,22.73
2022-08-19T17:48:51.751Z,22.80
2022-08-19T17:51:23.402Z,22.99
2022-08-19T17:53:52.444Z,23.00
2022-08-19T17:56:23.510Z,22.87
2022-08-19T17:59:00.166Z,22.81
2022-08-19T18:01:41.606Z,22.70
2022-08-19T18:04:18.932Z,22.61
2022-08-19T18:06:53.067Z,22.44
2022-08-19T18:09:24.415Z,22.43
2022-08-19T18:11:57.002Z,22.50
2022-08-19T18:14:33.505Z,22.67
2022-08-19T18:17:06.317Z,22.76
2022-08-19T18:19:41.715Z,22.69
2022-08-19T18:22:12.717Z,22.51
2022-08-19T18:24:41.610Z,22.47
2022-08-19T18:27:11.061Z,22.25
2022-08-19T18:29:40.227Z,22.67
2022-08-19T18:32:12.667Z,22.66
2022-08-19T18:34:43.135Z,22.46
2022-08-19T18:39:57.929Z,22.64
2022-08-19T18:42:45.126Z,22.46
2022-08-19T18:45:30.921Z,22.10
2022-08-19T18:48:26.893Z,22.47
2022-08-19T18:50:58.166Z,22.43
2022-08-19T18:53:27.325Z,22.25
2022-08-19T18:55:55.565Z,22.42
2022-08-19T18:58:28.281Z,22.41
2022-08-19T19:00:57.309Z,22.50
2022-08-19T19:03:26.320Z,22.48
2022-08-19T19:05:54.844Z,22.51
2022-08-19T19:08:27.012Z,22.53
2022-08-19T19:10:56.932Z,22.58
2022-08-19T19:13:28.784Z,22.51
2022-08-19T19:15:56.969Z,22.26
2022-08-19T19:18:25.153Z,21.87
2022-08-19T19:20:53.151Z,21.83
2022-08-19T19:23:21.700Z,21.96
2022-08-19T19:25:51.369Z,21.85
2022-08-19T19:28:23.939Z,21.94
2022-08-19T19:30:57.549Z,21.78
2022-08-19T19:33:26.580Z,21.70
2022-08-19T19:35:55.220Z,21.65
2022-08-19T19:38:23.141Z,21.66
2022-08-19T19:40:51.110Z,21.65
2022-08-19T19:43:19.162Z,21.52
2022-08-19T19:45:49.282Z,21.54
2022-08-19T19:48:18.762Z,21.60
2022-08-19T19:50:47.851Z,21.69
2022-08-19T19:53:22.498Z,21.84
2022-08-19T19:55:51.624Z,21.77
2022-08-19T19:58:21.240Z,21.65
2022-08-19T20:00:57.607Z,21.69
2022-08-19T20:03:26.969Z,21.71
2022-08-19T20:05:55.027Z,21.52
2022-08-19T20:08:40.334Z,21.41
2022-08-19T20:11:08.436Z,21.48
2022-08-19T20:13:36.307Z,21.45
2022-08-19T20:16:04.588Z,21.46
2022-08-19T20:18:33.780Z,21.54
2022-08-19T20:21:01.858Z,21.46
2022-08-19T20:23:29.763Z,21.63
2022-08-19T20:25:57.691Z,21.60
2022-08-19T20:28:26.372Z,21.64
2022-08-19T20:30:54.467Z,21.57
2022-08-19T20:33:22.854Z,21.47
2022-08-19T20:35:52.790Z,21.39
2022-08-19T20:38:20.786Z,21.14
2022-08-19T20:40:48.801Z,20.96
2022-08-19T20:43:16.655Z,21.05
2022-08-19T20:45:44.929Z,20.79
2022-08-19T20:48:13.657Z,20.91
2022-08-19T20:50:41.698Z,20.85
2022-08-19T20:53:13.163Z,21.10
2022-08-19T20:55:44.407Z,20.98
2022-08-19T20:58:13.575Z,21.14
2022-08-19T21:00:44.033Z,20.83
2022-08-19T21:03:12.367Z,20.91
2022-08-19T21:05:40.437Z,20.91
2022-08-19T21:08:09.175Z,20.89
2022-08-19T21:10:41.830Z,20.80
2022-08-19T21:13:10.658Z,21.01
2022-08-19T21:15:41.570Z,21.01
2022-08-19T21:18:10.474Z,20.98
2022-08-19T21:20:39.013Z,21.07
2022-08-19T21:23:12.373Z,20.89
2022-08-19T21:25:41.781Z,21.23
2022-08-19T21:28:29.954Z,21.25
2022-08-19T21:31:06.420Z,21.11
2022-08-19T21:33:35.086Z,20.95
2022-08-19T21:36:04.938Z,20.90
2022-08-19T21:38:33.546Z,21.17
2022-08-19T21:41:06.185Z,21.15
2022-08-19T21:43:34.691Z,21.22
2022-08-19T21:46:02.768Z,21.08
2022-08-19T21:48:30.706Z,21.00
2022-08-19T21:50:58.607Z,20.71
2022-08-19T21:53:31.675Z,20.68
2022-08-19T21:56:03.824Z,20.69
2022-08-19T21:58:31.645Z,20.75
2022-08-19T22:01:00.501Z,20.60
2022-08-19T22:03:28.913Z,20.56
2022-08-19T22:05:58.726Z,20.62
2022-08-19T22:08:27.374Z,20.72
2022-08-19T22:10:55.998Z,20.60
2022-08-19T22:13:29.023Z,20.61
2022-08-19T22:15:56.967Z,20.72
2022-08-19T22:18:25.017Z,20.80
2022-08-19T22:20:52.929Z,20.80
2022-08-19T22:23:21.050Z,20.71
2022-08-19T22:25:49.154Z,20.56
2022-08-19T22:28:18.752Z,20.39
2022-08-19T22:30:55.484Z,20.20
2022-08-19T22:33:31.773Z,20.32
2022-08-19T22:36:02.270Z,20.43
2022-08-19T22:38:31.697Z,20.49
2022-08-19T22:41:07.602Z,20.48
2022-08-19T22:43:37.739Z,20.85
2022-08-19T22:46:16.837Z,21.06
2022-08-19T22:49:01.108Z,20.95
2022-08-19T22:51:51.459Z,20.60
2022-08-19T22:54:20.149Z,20.39
2022-08-19T22:56:48.676Z,20.44
2022-08-19T22:59:20.450Z,20.62
2022-08-19T23:01:53.314Z,20.72
2022-08-19T23:04:23.012Z,20.68
2022-08-19T23:06:54.493Z,20.68
2022-08-19T23:09:24.285Z,20.73
2022-08-19T23:11:59.573Z,20.51
2022-08-19T23:14:28.305Z,20.50
2022-08-19T23:16:59.280Z,20.47
2022-08-19T23:19:27.969Z,20.36
2022-08-19T23:21:56.406Z,20.28
2022-08-19T23:24:24.596Z,20.31
2022-08-19T23:27:10.155Z,20.34
2022-08-19T23:29:55.792Z,20.30
2022-08-19T23:32:26.066Z,20.33
2022-08-19T23:34:56.675Z,20.41
2022-08-19T23:37:25.482Z,20.38
2022-08-19T23:39:53.549Z,20.37
2022-08-19T23:42:21.556Z,20.42
2022-08-19T23:44:51.685Z,20.36
2022-08-19T23:47:23.938Z,20.33
2022-08-19T23:50:04.714Z,20.38
2022-08-19T23:52:33.840Z,20.36
2022-08-19T23:55:06.398Z,20.39
2022-08-19T23:57:40.243Z,20.45
